Time;durP1;ratioP1;P1;durP2;ratioP2;P2;SDS_P1;SDS_P2;PMS_P1;PMS_P2;Temp;Humidity;BMP_temperature;BMP_pressure;BME280_temperature;BME280_humidity;BME280_pressure;Samples;Min_cycle;Max_cycle;Signal;HPM_P1;HPM_P2
2022/07/27 00:00:13;;;;;;;8.93;7.82;;;;;;;;;;5079575;28;20446;-86
2022/07/27 00:02:38;;;;;;;7.68;6.90;;;;;;;;;;5081746;28;20106;-86
2022/07/27 00:05:04;;;;;;;8.00;6.90;;;;;;;;;;5082857;28;20077;-86
2022/07/27 00:07:30;;;;;;;8.45;7.50;;;;;;;;;;5082999;28;20434;-86
2022/07/27 00:09:55;;;;;;;8.02;7.22;;;;;;;;;;5083674;28;20495;-87
2022/07/27 00:12:21;;;;;;;10.00;7.82;;;;;;;;;;5077703;28;20021;-87
2022/07/27 00:14:46;;;;;;;7.47;6.78;;;;;;;;;;5084859;28;20032;-86
2022/07/27 00:17:11;;;;;;;8.60;7.35;;;;;;;;;;5083026;28;20024;-86
2022/07/27 00:19:37;;;;;;;10.20;7.28;;;;;;;;;;5082879;28;20023;-87
2022/07/27 00:22:02;;;;;;;9.15;8.10;;;;;;;;;;5082808;28;20027;-86
2022/07/27 00:24:28;;;;;;;8.05;7.22;;;;;;;;;;5077635;28;20035;-86
2022/07/27 00:26:53;;;;;;;7.32;6.57;;;;;;;;;;5083146;28;20028;-87
2022/07/27 00:29:19;;;;;;;8.95;6.93;;;;;;;;;;5079580;28;20412;-86
2022/07/27 00:31:44;;;;;;;9.45;8.15;;;;;;;;;;5079912;28;20082;-88
2022/07/27 00:34:09;;;;;;;8.82;7.93;;;;;;;;;;5082357;28;20020;-87
2022/07/27 00:36:35;;;;;;;9.52;7.75;;;;;;;;;;5081306;28;20032;-87
2022/07/27 00:39:00;;;;;;;8.75;7.85;;;;;;;;;;5081053;28;20473;-86
2022/07/27 00:41:26;;;;;;;9.32;8.27;;;;;;;;;;5078320;28;20029;-86
2022/07/27 00:43:57;;;;;;;7.80;7.00;;;;;;;;;;5079832;28;20020;-88
2022/07/27 00:46:24;;;;;;;8.52;7.65;;;;;;;;;;5084924;28;20540;-85
2022/07/27 00:48:50;;;;;;;8.48;7.50;;;;;;;;;;5083650;28;20491;-85
2022/07/27 00:51:17;;;;;;;8.23;7.43;;;;;;;;;;5080135;28;20071;-83
2022/07/27 00:53:43;;;;;;;8.02;7.15;;;;;;;;;;5081516;28;20020;-84
2022/07/27 00:56:09;;;;;;;8.90;7.40;;;;;;;;;;5081751;28;20069;-86
2022/07/27 00:58:37;;;;;;;8.85;7.95;;;;;;;;;;5081955;28;20059;-86
2022/07/27 01:01:03;;;;;;;8.50;7.68;;;;;;;;;;5074783;28;20055;-87
2022/07/27 01:03:28;;;;;;;9.25;7.93;;;;;;;;;;5076530;28;20484;-85
2022/07/27 01:05:54;;;;;;;9.10;8.20;;;;;;;;;;5080775;28;20417;-85
2022/07/27 01:08:19;;;;;;;8.52;7.63;;;;;;;;;;5077543;28;20028;-86
2022/07/27 01:10:46;;;;;;;11.35;8.68;;;;;;;;;;5082728;28;20028;-85
2022/07/27 01:13:14;;;;;;;9.10;7.68;;;;;;;;;;5084658;28;20503;-85
2022/07/27 01:15:41;;;;;;;10.27;9.20;;;;;;;;;;5079004;28;20028;-86
2022/07/27 01:18:33;;;;;;;8.10;7.30;;;;;;;;;;5083518;28;20031;-87
2022/07/27 01:21:00;;;;;;;9.85;7.97;;;;;;;;;;5079633;28;20430;-85
2022/07/27 01:23:26;;;;;;;8.25;7.40;;;;;;;;;;5077307;28;20166;-85
2022/07/27 01:25:53;;;;;;;9.65;8.43;;;;;;;;;;5076618;28;20099;-87
2022/07/27 01:28:18;;;;;;;10.05;8.07;;;;;;;;;;5077088;28;20025;-85
2022/07/27 01:30:44;;;;;;;9.35;7.90;;;;;;;;;;5078672;28;20113;-84
2022/07/27 01:33:09;;;;;;;9.02;8.10;;;;;;;;;;5078139;28;20443;-85
2022/07/27 01:35:36;;;;;;;12.93;7.88;;;;;;;;;;5079204;28;20031;-85
2022/07/27 01:38:02;;;;;;;9.13;7.57;;;;;;;;;;5080123;28;20031;-85
2022/07/27 01:40:28;;;;;;;9.48;7.57;;;;;;;;;;5079780;28;20391;-85
2022/07/27 01:42:53;;;;;;;9.25;7.78;;;;;;;;;;5077393;28;20027;-85
2022/07/27 01:45:20;;;;;;;9.23;7.22;;;;;;;;;;5070808;28;20035;-84
2022/07/27 01:47:46;;;;;;;8.32;7.40;;;;;;;;;;5082913;28;20395;-86
2022/07/27 01:50:11;;;;;;;8.90;8.00;;;;;;;;;;5079450;28;20073;-83
2022/07/27 01:52:38;;;;;;;10.27;8.75;;;;;;;;;;5082000;28;20024;-83
2022/07/27 01:55:07;;;;;;;9.38;8.38;;;;;;;;;;5074366;28;20043;-85
2022/07/27 01:57:33;;;;;;;;;;;;;;;;;;5080241;28;20028;-85
2022/07/27 01:59:59;;;;;;;11.10;8.30;;;;;;;;;;5076759;28;19973;-85
2022/07/27 02:02:24;;;;;;;10.25;8.30;;;;;;;;;;5079315;28;20043;-84
2022/07/27 02:04:49;;;;;;;10.15;8.43;;;;;;;;;;5081406;28;20066;-85
2022/07/27 02:07:15;;;;;;;10.65;8.75;;;;;;;;;;5081429;28;20039;-85
2022/07/27 02:09:40;;;;;;;9.48;8.40;;;;;;;;;;5076763;28;20024;-85
2022/07/27 02:14:50;;;;;;;9.45;8.45;;;;;;;;;;5085703;28;20400;-85
2022/07/27 02:17:15;;;;;;;9.45;8.18;;;;;;;;;;5083694;28;20069;-84
2022/07/27 02:19:41;;;;;;;10.23;8.63;;;;;;;;;;5085261;28;20027;-84
2022/07/27 02:22:06;;;;;;;9.98;8.75;;;;;;;;;;5081474;28;20020;-86
2022/07/27 02:24:32;;;;;;;9.63;8.23;;;;;;;;;;5084902;28;20017;-84
2022/07/27 02:26:58;;;;;;;8.63;7.72;;;;;;;;;;5081333;28;20472;-85
2022/07/27 02:29:23;;;;;;;10.10;8.57;;;;;;;;;;5086006;28;20121;-86
2022/07/27 02:31:48;;;;;;;10.10;8.23;;;;;;;;;;5087702;28;20047;-84
2022/07/27 02:34:14;;;;;;;9.52;8.45;;;;;;;;;;5086602;28;20051;-85
2022/07/27 02:36:39;;;;;;;9.95;8.90;;;;;;;;;;5083325;28;20036;-84
2022/07/27 02:39:05;;;;;;;10.13;8.45;;;;;;;;;;5083186;28;20028;-85
2022/07/27 02:41:30;;;;;;;10.18;8.93;;;;;;;;;;5088156;28;20026;-87
2022/07/27 02:43:55;;;;;;;9.73;8.73;;;;;;;;;;5080094;28;20479;-84
2022/07/27 02:46:21;;;;;;;11.77;9.15;;;;;;;;;;5081547;28;20028;-84
2022/07/27 02:48:46;;;;;;;10.70;8.70;;;;;;;;;;5078424;28;20081;-85
2022/07/27 02:51:13;;;;;;;10.13;8.57;;;;;;;;;;5081583;28;20033;-86
2022/07/27 02:53:39;;;;;;;10.52;9.35;;;;;;;;;;5083564;28;20998;-86
2022/07/27 02:56:05;;;;;;;9.52;7.93;;;;;;;;;;5084477;28;20107;-85
2022/07/27 02:58:30;;;;;;;11.20;8.57;;;;;;;;;;5084179;28;20459;-86
2022/07/27 03:00:56;;;;;;;10.30;8.85;;;;;;;;;;5084180;28;20040;-85
2022/07/27 03:03:21;;;;;;;9.30;7.78;;;;;;;;;;5084098;28;20036;-85
2022/07/27 03:05:47;;;;;;;9.73;7.93;;;;;;;;;;5084052;28;20027;-85
2022/07/27 03:08:13;;;;;;;10.30;9.20;;;;;;;;;;5082404;28;20024;-85
2022/07/27 03:10:38;;;;;;;10.20;9.10;;;;;;;;;;5084602;28;20094;-85
2022/07/27 03:13:04;;;;;;;10.05;8.85;;;;;;;;;;5077300;28;20102;-84
2022/07/27 03:15:32;;;;;;;10.80;8.45;;;;;;;;;;5081321;28;20032;-84
2022/07/27 03:17:57;;;;;;;9.52;8.30;;;;;;;;;;5082349;28;20028;-86
2022/07/27 03:20:23;;;;;;;11.13;8.68;;;;;;;;;;5084422;28;20046;-85
2022/07/27 03:22:48;;;;;;;12.00;8.55;;;;;;;;;;5084114;28;20528;-84
2022/07/27 03:25:13;;;;;;;9.15;7.85;;;;;;;;;;5082008;28;20020;-84
2022/07/27 03:27:39;;;;;;;9.75;7.97;;;;;;;;;;5079317;28;20029;-83
2022/07/27 03:30:05;;;;;;;8.95;7.88;;;;;;;;;;5079799;28;20116;-84
2022/07/27 03:32:31;;;;;;;16.27;7.90;;;;;;;;;;5080163;28;20383;-85
2022/07/27 03:34:56;;;;;;;10.57;8.70;;;;;;;;;;5079155;28;20030;-84
2022/07/27 03:37:22;;;;;;;9.88;8.50;;;;;;;;;;5077150;28;20031;-85
2022/07/27 03:39:47;;;;;;;9.10;8.05;;;;;;;;;;5080742;28;20029;-84
2022/07/27 03:42:13;;;;;;;10.10;8.57;;;;;;;;;;5081956;28;20024;-86
2022/07/27 03:44:38;;;;;;;10.75;8.85;;;;;;;;;;5077893;28;20438;-83
2022/07/27 03:47:04;;;;;;;9.98;8.13;;;;;;;;;;5081383;28;20077;-84
2022/07/27 03:49:30;;;;;;;9.30;7.05;;;;;;;;;;5078383;28;20410;-86
2022/07/27 03:51:55;;;;;;;9.98;7.20;;;;;;;;;;5076004;28;20376;-85
2022/07/27 03:54:32;;;;;;;11.02;9.18;;;;;;;;;;5080997;28;20032;-85
2022/07/27 03:56:58;;;;;;;10.20;8.40;;;;;;;;;;5077656;28;20074;-85
2022/07/27 03:59:23;;;;;;;9.93;7.70;;;;;;;;;;5077011;28;20024;-85
2022/07/27 04:01:49;;;;;;;9.40;7.47;;;;;;;;;;5081051;28;20488;-84
2022/07/27 04:04:14;;;;;;;9.55;7.75;;;;;;;;;;5080910;28;20495;-89
2022/07/27 04:06:39;;;;;;;10.43;7.90;;;;;;;;;;5078578;28;20108;-80
2022/07/27 04:09:05;;;;;;;10.07;7.45;;;;;;;;;;5082162;28;20032;-82
2022/07/27 04:11:30;;;;;;;9.15;7.38;;;;;;;;;;5081447;28;20024;-83
2022/07/27 04:13:56;;;;;;;9.95;6.70;;;;;;;;;;5078600;28;20464;-82
2022/07/27 04:16:22;;;;;;;9.70;6.85;;;;;;;;;;5075153;28;20028;-82
2022/07/27 04:18:47;;;;;;;10.27;7.22;;;;;;;;;;5075159;28;20039;-83
2022/07/27 04:21:14;;;;;;;8.90;6.93;;;;;;;;;;5088027;28;20047;-83
2022/07/27 04:23:40;;;;;;;8.15;6.53;;;;;;;;;;5079280;28;20025;-83
2022/07/27 04:26:06;;;;;;;18.73;8.02;;;;;;;;;;5079115;28;20069;-83
2022/07/27 04:28:31;;;;;;;9.30;6.95;;;;;;;;;;5083228;28;20020;-83
2022/07/27 04:30:57;;;;;;;11.43;6.75;;;;;;;;;;5082534;28;20364;-82
2022/07/27 04:33:22;;;;;;;9.55;7.10;;;;;;;;;;5080833;28;20020;-83
2022/07/27 04:35:48;;;;;;;7.60;6.20;;;;;;;;;;5079729;28;20146;-83
2022/07/27 04:38:13;;;;;;;7.88;5.95;;;;;;;;;;5079271;28;20386;-85
2022/07/27 04:40:38;;;;;;;7.70;5.90;;;;;;;;;;5077239;28;20033;-84
2022/07/27 04:43:05;;;;;;;10.27;6.78;;;;;;;;;;5075451;28;20048;-82
2022/07/27 04:45:31;;;;;;;8.13;6.32;;;;;;;;;;5078890;28;20028;-88
2022/07/27 04:47:56;;;;;;;8.00;6.18;;;;;;;;;;5077860;28;20051;-84
2022/07/27 04:50:22;;;;;;;8.98;6.00;;;;;;;;;;5081066;28;20048;-84
2022/07/27 04:52:47;;;;;;;8.70;6.28;;;;;;;;;;5079752;28;20035;-83
2022/07/27 04:55:13;;;;;;;7.05;5.63;;;;;;;;;;5071927;28;20384;-84
2022/07/27 04:57:42;;;;;;;8.00;5.60;;;;;;;;;;5075009;28;20090;-83
2022/07/27 05:00:10;;;;;;;8.05;5.55;;;;;;;;;;5077761;28;20140;-83
2022/07/27 05:02:39;;;;;;;11.52;6.43;;;;;;;;;;5077111;28;20115;-83
2022/07/27 05:05:08;;;;;;;9.70;6.10;;;;;;;;;;5071789;28;20043;-83
2022/07/27 05:07:34;;;;;;;9.25;6.18;;;;;;;;;;5076290;28;20028;-84
2022/07/27 05:09:59;;;;;;;9.70;5.90;;;;;;;;;;5077991;28;20086;-83
2022/07/27 05:12:25;;;;;;;8.00;5.50;;;;;;;;;;5068870;28;20464;-85
2022/07/27 05:14:50;;;;;;;7.10;5.35;;;;;;;;;;5080615;28;20028;-83
2022/07/27 05:17:15;;;;;;;7.80;5.78;;;;;;;;;;5077515;28;20035;-85
2022/07/27 05:19:41;;;;;;;10.00;5.80;;;;;;;;;;5078866;28;20024;-86
2022/07/27 05:22:07;;;;;;;9.85;6.32;;;;;;;;;;5071140;28;22210;-83
2022/07/27 05:24:33;;;;;;;7.65;5.78;;;;;;;;;;5074968;28;20082;-83
2022/07/27 05:26:58;;;;;;;9.13;5.82;;;;;;;;;;5075319;28;20032;-84
2022/07/27 05:29:24;;;;;;;7.60;5.22;;;;;;;;;;5072735;28;20479;-81
2022/07/27 05:31:50;;;;;;;7.70;5.63;;;;;;;;;;5068888;28;20025;-83
2022/07/27 05:34:15;;;;;;;17.33;6.03;;;;;;;;;;5067904;28;20043;-82
2022/07/27 05:36:40;;;;;;;7.60;5.43;;;;;;;;;;5072547;28;20031;-83
2022/07/27 05:39:06;;;;;;;8.50;5.63;;;;;;;;;;5072652;28;20029;-83
2022/07/27 05:41:31;;;;;;;10.75;5.70;;;;;;;;;;5072059;28;20487;-82
2022/07/27 05:43:57;;;;;;;6.82;5.32;;;;;;;;;;5070920;28;20034;-83
2022/07/27 05:46:22;;;;;;;8.07;6.10;;;;;;;;;;5068001;28;20060;-84
2022/07/27 05:48:48;;;;;;;13.23;6.55;;;;;;;;;;5066597;28;20117;-82
2022/07/27 05:51:14;;;;;;;7.50;5.88;;;;;;;;;;5067452;28;20034;-85
2022/07/27 05:53:39;;;;;;;7.55;5.40;;;;;;;;;;5063669;28;20074;-83
2022/07/27 05:56:06;;;;;;;8.20;6.10;;;;;;;;;;5064244;28;20112;-84
2022/07/27 05:58:32;;;;;;;10.07;6.22;;;;;;;;;;5070679;28;20446;-81
2022/07/27 06:00:58;;;;;;;8.35;5.88;;;;;;;;;;5072499;28;20099;-81
2022/07/27 06:03:24;;;;;;;8.77;6.07;;;;;;;;;;5074089;28;20041;-82
2022/07/27 06:05:50;;;;;;;11.07;5.50;;;;;;;;;;5054216;28;20060;-81
2022/07/27 06:08:16;;;;;;;10.48;6.43;;;;;;;;;;5056860;28;20048;-84
2022/07/27 06:10:41;;;;;;;11.45;5.97;;;;;;;;;;5054436;28;20104;-82
2022/07/27 06:13:09;;;;;;;10.30;6.18;;;;;;;;;;5059440;28;20046;-82
2022/07/27 06:15:35;;;;;;;12.57;6.00;;;;;;;;;;5052169;28;20033;-82
2022/07/27 06:18:02;;;;;;;9.43;6.20;;;;;;;;;;5056893;28;20528;-84
2022/07/27 06:20:29;;;;;;;15.05;6.25;;;;;;;;;;5053425;28;20087;-82
2022/07/27 06:22:58;;;;;;;11.93;6.93;;;;;;;;;;5056048;28;20090;-85
2022/07/27 06:25:25;;;;;;;12.23;6.57;;;;;;;;;;5066083;28;20427;-82
2022/07/27 06:27:52;;;;;;;8.65;6.18;;;;;;;;;;5053093;28;20047;-82
2022/07/27 06:30:19;;;;;;;11.90;6.57;;;;;;;;;;5060353;28;20396;-82
2022/07/27 06:32:45;;;;;;;12.63;6.18;;;;;;;;;;5051982;28;20786;-82
2022/07/27 06:35:12;;;;;;;9.80;6.03;;;;;;;;;;5060392;28;20036;-83
2022/07/27 06:37:42;;;;;;;9.35;6.60;;;;;;;;;;5062870;28;20033;-85
2022/07/27 06:40:12;;;;;;;11.95;6.72;;;;;;;;;;5052678;28;20029;-83
2022/07/27 06:42:38;;;;;;;8.50;6.25;;;;;;;;;;5052340;28;20029;-83
2022/07/27 06:45:04;;;;;;;11.85;6.85;;;;;;;;;;5046844;28;20032;-82
2022/07/27 06:47:30;;;;;;;10.50;6.28;;;;;;;;;;5053306;28;20037;-85
2022/07/27 06:49:55;;;;;;;10.77;6.13;;;;;;;;;;5065794;28;20338;-86
2022/07/27 06:52:21;;;;;;;8.65;6.40;;;;;;;;;;5050458;28;20065;-83
2022/07/27 06:54:46;;;;;;;12.23;6.78;;;;;;;;;;5058741;28;20033;-82
2022/07/27 06:57:12;;;;;;;8.18;6.22;;;;;;;;;;5056133;28;20028;-83
2022/07/27 06:59:37;;;;;;;9.23;6.90;;;;;;;;;;5053776;28;20023;-82
2022/07/27 07:02:02;;;;;;;12.88;6.55;;;;;;;;;;5058749;28;20052;-81
2022/07/27 07:04:28;;;;;;;10.35;6.43;;;;;;;;;;5052472;28;20039;-83
2022/07/27 07:06:53;;;;;;;10.43;6.03;;;;;;;;;;5053172;28;20025;-82
2022/07/27 07:09:19;;;;;;;12.15;6.30;;;;;;;;;;5059554;28;20085;-82
2022/07/27 07:11:44;;;;;;;10.48;6.32;;;;;;;;;;5051662;28;20047;-81
2022/07/27 07:14:10;;;;;;;10.60;6.35;;;;;;;;;;5072496;28;20466;-85
2022/07/27 07:16:35;;;;;;;8.43;6.07;;;;;;;;;;5058993;28;20025;-84
2022/07/27 07:19:01;;;;;;;11.63;6.85;;;;;;;;;;5070124;28;20029;-84
2022/07/27 07:21:26;;;;;;;7.65;6.32;;;;;;;;;;5056372;28;20024;-82
2022/07/27 07:23:51;;;;;;;10.07;6.13;;;;;;;;;;5057181;28;20052;-82
2022/07/27 07:26:17;;;;;;;10.88;5.95;;;;;;;;;;5049484;28;20762;-86
2022/07/27 07:28:42;;;;;;;8.73;6.38;;;;;;;;;;5050928;28;20440;-83
2022/07/27 07:31:08;;;;;;;11.40;6.68;;;;;;;;;;5055349;28;20044;-81
2022/07/27 07:33:34;;;;;;;10.48;6.18;;;;;;;;;;5047018;28;20029;-85
2022/07/27 07:35:59;;;;;;;10.52;6.15;;;;;;;;;;5046291;28;20461;-82
2022/07/27 07:38:24;;;;;;;12.80;6.93;;;;;;;;;;5048342;28;20468;-83
2022/07/27 07:40:50;;;;;;;10.05;6.90;;;;;;;;;;5063526;28;20027;-81
2022/07/27 07:43:16;;;;;;;11.05;6.80;;;;;;;;;;5055852;28;20029;-81
2022/07/27 07:45:42;;;;;;;10.20;6.35;;;;;;;;;;5065709;28;20472;-82
2022/07/27 07:48:07;;;;;;;7.25;6.10;;;;;;;;;;5057569;28;20036;-83
2022/07/27 07:50:33;;;;;;;10.57;6.18;;;;;;;;;;5064430;28;20024;-84
2022/07/27 07:52:58;;;;;;;10.05;7.22;;;;;;;;;;5064275;28;20033;-81
2022/07/27 07:55:26;;;;;;;9.80;6.20;;;;;;;;;;5063689;28;20032;-82
2022/07/27 07:57:52;;;;;;;10.52;6.13;;;;;;;;;;5049677;28;20538;-83
2022/07/27 08:00:19;;;;;;;6.43;5.30;;;;;;;;;;5051163;28;20025;-85
2022/07/27 08:02:53;;;;;;;8.13;6.50;;;;;;;;;;5064427;28;20039;-80
2022/07/27 08:05:19;;;;;;;7.05;5.45;;;;;;;;;;5062849;28;20452;-84
2022/07/27 08:07:46;;;;;;;8.77;6.15;;;;;;;;;;5058443;28;20057;-81
2022/07/27 08:10:13;;;;;;;8.38;5.72;;;;;;;;;;5054890;28;20452;-85
2022/07/27 08:12:42;;;;;;;12.70;6.10;;;;;;;;;;5061249;28;20388;-82
2022/07/27 08:15:09;;;;;;;9.10;5.68;;;;;;;;;;5054034;28;20021;-84
2022/07/27 08:17:34;;;;;;;9.52;6.10;;;;;;;;;;5056888;28;20118;-81
2022/07/27 08:20:00;;;;;;;9.27;5.75;;;;;;;;;;5054744;28;20107;-82
2022/07/27 08:22:25;;;;;;;8.23;5.60;;;;;;;;;;5059344;28;20021;-82
2022/07/27 08:24:51;;;;;;;7.75;6.07;;;;;;;;;;5067793;28;20028;-82
2022/07/27 08:27:16;;;;;;;6.63;5.45;;;;;;;;;;5051847;28;20548;-81
2022/07/27 08:29:42;;;;;;;7.80;5.88;;;;;;;;;;5084170;28;20119;-84
2022/07/27 08:32:07;;;;;;;9.60;5.60;;;;;;;;;;5062084;28;20037;-82
2022/07/27 08:34:33;;;;;;;7.75;5.80;;;;;;;;;;5061457;28;20464;-84
2022/07/27 08:36:58;;;;;;;7.32;6.13;;;;;;;;;;5056877;28;20434;-83
2022/07/27 08:39:24;;;;;;;7.95;5.60;;;;;;;;;;5051776;28;20036;-83
2022/07/27 08:41:52;;;;;;;8.57;5.47;;;;;;;;;;5059664;28;20064;-82
2022/07/27 08:44:22;;;;;;;10.00;6.00;;;;;;;;;;5050110;28;20028;-83
2022/07/27 08:46:49;;;;;;;8.00;7.20;;;;;;;;;;5056185;28;20029;-85
2022/07/27 08:49:15;;;;;;;10.27;5.90;;;;;;;;;;5060157;28;20067;-83
2022/07/27 08:51:40;;;;;;;9.85;6.22;;;;;;;;;;5047282;28;20059;-84
2022/07/27 08:54:07;;;;;;;8.10;5.85;;;;;;;;;;5062067;28;20559;-85
2022/07/27 08:56:33;;;;;;;10.32;5.93;;;;;;;;;;5049727;28;20029;-87
2022/07/27 08:58:58;;;;;;;6.80;6.10;;;;;;;;;;5059822;28;20029;-82
2022/07/27 09:01:24;;;;;;;10.05;6.03;;;;;;;;;;5049919;28;20029;-84
2022/07/27 09:03:49;;;;;;;8.88;6.43;;;;;;;;;;5051667;28;20025;-84
2022/07/27 09:06:46;;;;;;;9.93;6.47;;;;;;;;;;5056246;28;20039;-83
2022/07/27 09:09:13;;;;;;;9.32;6.47;;;;;;;;;;5055593;28;20036;-82
2022/07/27 09:11:39;;;;;;;10.77;6.88;;;;;;;;;;5050395;28;20028;-83
2022/07/27 09:14:07;;;;;;;9.25;6.22;;;;;;;;;;5054731;28;20040;-83
2022/07/27 09:16:34;;;;;;;12.80;6.82;;;;;;;;;;5053487;28;20025;-83
2022/07/27 09:19:04;;;;;;;8.43;6.50;;;;;;;;;;5047499;28;20025;-82
2022/07/27 09:21:30;;;;;;;10.48;6.30;;;;;;;;;;5044798;28;20037;-83
2022/07/27 09:24:07;;;;;;;11.63;6.38;;;;;;;;;;5050386;28;20048;-85
2022/07/27 09:26:33;;;;;;;8.45;6.78;;;;;;;;;;5049887;28;20052;-82
2022/07/27 09:29:12;;;;;;;7.25;6.25;;;;;;;;;;5049126;28;20056;-85
2022/07/27 09:31:49;;;;;;;10.98;7.00;;;;;;;;;;5053061;28;20043;-86
2022/07/27 09:34:33;;;;;;;12.13;6.75;;;;;;;;;;5051372;28;20048;-84
2022/07/27 09:36:59;;;;;;;18.02;7.55;;;;;;;;;;5046430;28;20131;-81
2022/07/27 09:39:26;;;;;;;6.88;6.05;;;;;;;;;;5062463;28;20028;-83
2022/07/27 09:41:54;;;;;;;9.48;6.35;;;;;;;;;;5049059;28;20078;-79
2022/07/27 09:44:36;;;;;;;12.57;6.50;;;;;;;;;;5043849;28;20112;-82
2022/07/27 09:47:28;;;;;;;9.40;6.60;;;;;;;;;;5051797;28;20028;-81
2022/07/27 09:49:55;;;;;;;9.77;5.95;;;;;;;;;;5044960;28;20104;-81
2022/07/27 09:52:23;;;;;;;9.82;6.18;;;;;;;;;;5039695;28;20393;-81
2022/07/27 09:54:49;;;;;;;7.72;6.65;;;;;;;;;;5042238;28;20071;-82
2022/07/27 09:57:16;;;;;;;8.73;6.32;;;;;;;;;;5043292;28;20154;-82
2022/07/27 09:59:42;;;;;;;11.95;6.60;;;;;;;;;;5067794;28;20032;-82
2022/07/27 10:02:07;;;;;;;9.93;6.28;;;;;;;;;;5054374;28;20052;-82
2022/07/27 10:04:33;;;;;;;7.05;6.18;;;;;;;;;;5052227;28;20144;-83
2022/07/27 10:07:00;;;;;;;8.18;6.05;;;;;;;;;;5045654;28;20036;-81
2022/07/27 10:09:28;;;;;;;8.32;6.63;;;;;;;;;;5048557;28;20508;-82
2022/07/27 10:11:53;;;;;;;9.07;6.20;;;;;;;;;;5044587;28;20026;-81
2022/07/27 10:14:18;;;;;;;7.32;6.18;;;;;;;;;;5050106;28;20029;-81
2022/07/27 10:16:48;;;;;;;6.78;5.78;;;;;;;;;;5045228;28;20071;-82
2022/07/27 10:19:18;;;;;;;8.95;6.63;;;;;;;;;;5066834;28;20031;-81
2022/07/27 10:21:46;;;;;;;8.88;6.43;;;;;;;;;;5052319;28;20490;-84
2022/07/27 10:24:35;;;;;;;7.25;5.90;;;;;;;;;;5056460;28;20047;-82
2022/07/27 10:27:27;;;;;;;7.15;6.05;;;;;;;;;;5055583;28;20107;-81
2022/07/27 10:29:54;;;;;;;6.80;6.10;;;;;;;;;;5054067;28;20037;-84
2022/07/27 10:32:31;;;;;;;6.82;5.65;;;;;;;;;;5059141;28;20107;-84
2022/07/27 10:34:57;;;;;;;7.10;6.38;;;;;;;;;;5064411;28;20025;-86
2022/07/27 10:37:28;;;;;;;9.02;6.50;;;;;;;;;;5060584;28;20099;-82
2022/07/27 10:42:45;;;;;;;7.03;5.90;;;;;;;;;;5057738;28;20103;-82
2022/07/27 10:45:14;;;;;;;8.13;6.57;;;;;;;;;;5050009;28;20056;-82
2022/07/27 10:47:43;;;;;;;16.10;7.75;;;;;;;;;;5054910;28;20032;-82
2022/07/27 10:50:15;;;;;;;9.70;7.10;;;;;;;;;;5051025;28;20075;-83
2022/07/27 10:52:49;;;;;;;11.50;7.30;;;;;;;;;;5059222;28;20483;-85
2022/07/27 10:55:34;;;;;;;8.90;7.10;;;;;;;;;;5062308;28;20028;-84
2022/07/27 10:58:02;;;;;;;8.48;6.93;;;;;;;;;;5060092;28;20487;-85
2022/07/27 11:00:49;;;;;;;9.82;7.03;;;;;;;;;;5056937;28;20083;-86
2022/07/27 11:03:22;;;;;;;7.82;6.93;;;;;;;;;;5064126;28;20094;-82
2022/07/27 11:06:11;;;;;;;7.35;6.57;;;;;;;;;;5049471;28;20142;-83
2022/07/27 11:08:41;;;;;;;7.30;6.43;;;;;;;;;;5047948;28;20033;-83
2022/07/27 11:11:09;;;;;;;12.43;6.97;;;;;;;;;;5050090;28;20072;-82
2022/07/27 11:13:35;;;;;;;8.10;6.80;;;;;;;;;;5046728;28;20033;-85
2022/07/27 11:16:05;;;;;;;10.15;6.60;;;;;;;;;;5052857;28;20436;-83
2022/07/27 11:18:33;;;;;;;7.80;6.60;;;;;;;;;;5052439;28;20491;-85
2022/07/27 11:21:16;;;;;;;8.07;7.20;;;;;;;;;;5049829;28;20064;-83
2022/07/27 11:23:43;;;;;;;11.70;7.35;;;;;;;;;;5051361;28;20032;-84
2022/07/27 11:26:09;;;;;;;9.60;7.10;;;;;;;;;;5047920;28;20397;-83
2022/07/27 11:28:36;;;;;;;8.00;7.10;;;;;;;;;;5043051;28;20025;-85
2022/07/27 11:31:03;;;;;;;10.93;7.13;;;;;;;;;;5042827;28;20466;-83
2022/07/27 11:33:29;;;;;;;10.43;8.02;;;;;;;;;;5052907;28;20138;-82
2022/07/27 11:35:57;;;;;;;7.93;7.13;;;;;;;;;;5044971;28;20104;-84
2022/07/27 11:38:22;;;;;;;8.57;7.15;;;;;;;;;;5049635;28;20025;-83
2022/07/27 11:40:52;;;;;;;7.90;7.10;;;;;;;;;;5044366;28;20097;-81
2022/07/27 11:43:34;;;;;;;9.27;8.25;;;;;;;;;;5049381;28;20070;-84
2022/07/27 11:46:24;;;;;;;8.10;7.30;;;;;;;;;;5042255;28;20079;-82
2022/07/27 11:49:01;;;;;;;8.63;6.82;;;;;;;;;;5047462;28;20482;-83
2022/07/27 11:51:27;;;;;;;7.75;6.97;;;;;;;;;;5041685;28;20022;-81
2022/07/27 11:53:59;;;;;;;12.38;7.30;;;;;;;;;;5053143;28;20028;-82
2022/07/27 11:56:26;;;;;;;9.02;7.88;;;;;;;;;;5049661;28;20031;-83
2022/07/27 11:59:01;;;;;;;8.27;7.47;;;;;;;;;;5046125;28;20037;-81
2022/07/27 12:01:32;;;;;;;7.97;7.18;;;;;;;;;;5052333;28;20025;-84
2022/07/27 12:04:06;;;;;;;9.95;7.13;;;;;;;;;;5055826;28;20020;-87
2022/07/27 12:06:33;;;;;;;7.05;6.35;;;;;;;;;;5058046;28;20588;-87
2022/07/27 12:09:00;;;;;;;7.45;6.72;;;;;;;;;;5056942;28;20020;-88
2022/07/27 12:11:49;;;;;;;9.57;6.40;;;;;;;;;;5061476;28;20167;-85
2022/07/27 12:14:16;;;;;;;11.63;7.05;;;;;;;;;;5052785;28;20455;-87
2022/07/27 12:16:42;;;;;;;7.95;7.15;;;;;;;;;;5059200;28;20036;-84
2022/07/27 12:19:07;;;;;;;7.57;6.53;;;;;;;;;;5074994;28;20025;-86
2022/07/27 12:21:34;;;;;;;7.45;6.50;;;;;;;;;;5045823;28;20079;-86
2022/07/27 12:23:59;;;;;;;7.28;6.38;;;;;;;;;;5052709;28;20101;-85
2022/07/27 12:26:25;;;;;;;7.45;6.68;;;;;;;;;;5064771;28;20111;-83
2022/07/27 12:29:07;;;;;;;9.02;6.25;;;;;;;;;;5042573;28;20128;-84
2022/07/27 12:31:32;;;;;;;8.32;7.20;;;;;;;;;;5044866;28;20423;-83
2022/07/27 12:33:58;;;;;;;11.38;7.50;;;;;;;;;;5049133;28;20079;-86
2022/07/27 12:36:30;;;;;;;9.32;6.85;;;;;;;;;;5043587;28;20025;-86
2022/07/27 12:38:56;;;;;;;11.02;7.65;;;;;;;;;;5052565;28;20025;-82
2022/07/27 12:41:28;;;;;;;8.45;7.65;;;;;;;;;;5049102;28;20025;-83
2022/07/27 12:44:17;;;;;;;7.18;6.10;;;;;;;;;;5049515;28;20111;-83
2022/07/27 12:47:00;;;;;;;7.35;6.70;;;;;;;;;;5048812;28;20028;-83
2022/07/27 12:49:36;;;;;;;12.55;6.80;;;;;;;;;;5044703;28;20020;-82
2022/07/27 12:52:09;;;;;;;7.85;7.15;;;;;;;;;;5043964;28;20036;-85
2022/07/27 12:54:34;;;;;;;7.55;6.82;;;;;;;;;;5041262;28;20379;-83
2022/07/27 12:57:01;;;;;;;6.93;6.28;;;;;;;;;;5046641;28;20101;-83
2022/07/27 12:59:26;;;;;;;7.32;6.60;;;;;;;;;;5046005;28;20415;-82
2022/07/27 13:01:52;;;;;;;7.72;6.97;;;;;;;;;;5054935;28;20048;-84
2022/07/27 13:04:18;;;;;;;9.15;7.50;;;;;;;;;;5050688;28;20021;-84
2022/07/27 13:06:43;;;;;;;8.85;7.03;;;;;;;;;;5058508;28;20031;-81
2022/07/27 13:09:09;;;;;;;7.10;6.43;;;;;;;;;;5055582;28;20037;-83
2022/07/27 13:11:34;;;;;;;7.57;6.97;;;;;;;;;;5056249;28;20112;-84
2022/07/27 13:14:00;;;;;;;9.13;6.90;;;;;;;;;;5054293;28;20473;-85
2022/07/27 13:16:25;;;;;;;6.90;6.32;;;;;;;;;;5060086;28;20083;-83
2022/07/27 13:18:50;;;;;;;7.20;6.50;;;;;;;;;;5061585;28;20037;-84
2022/07/27 13:21:16;;;;;;;8.55;6.65;;;;;;;;;;5059291;28;20032;-83
2022/07/27 13:23:42;;;;;;;7.47;6.70;;;;;;;;;;5058831;28;20083;-84
2022/07/27 13:26:07;;;;;;;9.63;6.95;;;;;;;;;;5056184;28;20025;-83
2022/07/27 13:28:33;;;;;;;8.13;7.22;;;;;;;;;;5043986;28;20131;-84
2022/07/27 13:30:58;;;;;;;7.90;6.93;;;;;;;;;;5053891;28;20056;-85
2022/07/27 13:33:24;;;;;;;7.32;6.63;;;;;;;;;;5045427;28;20079;-86
2022/07/27 13:35:49;;;;;;;8.07;6.88;;;;;;;;;;5050524;28;20474;-83
2022/07/27 13:38:14;;;;;;;6.78;6.07;;;;;;;;;;5050578;28;20710;-83
2022/07/27 13:40:42;;;;;;;7.65;6.75;;;;;;;;;;5044469;28;20044;-84
2022/07/27 13:43:14;;;;;;;10.65;6.63;;;;;;;;;;5054238;28;20530;-83
2022/07/27 13:45:39;;;;;;;18.60;7.70;;;;;;;;;;5046766;28;20495;-83
2022/07/27 13:48:05;;;;;;;8.40;6.57;;;;;;;;;;5049964;28;20022;-82
2022/07/27 13:50:30;;;;;;;7.15;6.55;;;;;;;;;;5047261;28;20025;-83
2022/07/27 13:52:56;;;;;;;7.30;6.60;;;;;;;;;;5048730;28;20043;-84
2022/07/27 13:55:22;;;;;;;8.27;6.65;;;;;;;;;;5046134;28;20033;-85
2022/07/27 13:57:47;;;;;;;7.30;6.03;;;;;;;;;;5047616;28;20025;-84
2022/07/27 14:00:14;;;;;;;7.32;6.40;;;;;;;;;;5046465;28;20106;-84
2022/07/27 14:02:39;;;;;;;6.47;5.90;;;;;;;;;;5054994;28;20079;-85
2022/07/27 14:05:06;;;;;;;8.68;6.57;;;;;;;;;;5037397;28;20428;-83
2022/07/27 14:07:32;;;;;;;8.13;6.25;;;;;;;;;;5034519;28;20124;-84
2022/07/27 14:12:41;;;;;;;9.77;6.75;;;;;;;;;;5050822;28;20027;-82
2022/07/27 14:15:07;;;;;;;7.45;6.72;;;;;;;;;;5047527;28;20025;-83
2022/07/27 14:17:32;;;;;;;6.82;6.13;;;;;;;;;;5075723;28;20035;-82
2022/07/27 14:19:58;;;;;;;7.50;5.85;;;;;;;;;;5051225;28;20103;-85
2022/07/27 14:22:23;;;;;;;7.30;6.60;;;;;;;;;;5055667;28;20018;-83
2022/07/27 14:24:48;;;;;;;6.68;6.07;;;;;;;;;;5057630;28;20028;-84
2022/07/27 14:27:14;;;;;;;7.43;6.22;;;;;;;;;;5055261;28;20435;-85
2022/07/27 14:29:39;;;;;;;6.43;5.82;;;;;;;;;;5072602;28;20119;-85
2022/07/27 14:32:05;;;;;;;6.93;6.25;;;;;;;;;;5054682;28;20057;-84
2022/07/27 14:34:31;;;;;;;7.43;6.45;;;;;;;;;;5050384;28;20028;-83
2022/07/27 14:36:56;;;;;;;6.38;5.82;;;;;;;;;;5050903;28;20036;-83
2022/07/27 14:39:22;;;;;;;9.13;6.30;;;;;;;;;;5056502;28;20083;-82
2022/07/27 14:41:47;;;;;;;6.40;5.72;;;;;;;;;;5048603;28;20025;-83
2022/07/27 14:44:13;;;;;;;7.28;6.22;;;;;;;;;;5044022;28;20054;-81
2022/07/27 14:46:38;;;;;;;6.72;6.00;;;;;;;;;;5039742;28;20108;-83